Aérodrome :
LOGIN :

S'inscrire | Disclaimer

   EN    FR    IT 

 










Légende :    VFR   VFR Marginal   IFR   IFR Intensif   IFR Très Intensif
Visi : 
Plafond : 
>= 8 km
>= 3000ft
5 à 8 km
1000 à 3000 ft
1500m à 5 km
500 à 1000 ft
800 à 1500m
200 à 500 ft
< 800m
< 200 ft
Symboles :   Orages  Brouillard  Fortes neiges  Fortes précipitations  Vent > 20 kt
SIGMETs :   Divers  Orages  Givrage  Turbulence  Onde Orograph.  Cendres Volcan.






- Altitude de l'aérodrome : 18 ft


LIPC - Cervia AFB Ravenna

DERNIER METAR :
  • 200755Z 27006KT 9999 SCT050 01/M01 Q1039 RMK BKN VIS MIN 9999 WIND THR11 /////KT WIND THR29 28005KT BLU

METARs EXPIRÉS :
  • 200655Z 27004KT 9999 FEW013 00/M02 Q1038
  • 200555Z 26006KT CAVOK 00/M02 Q1037 RMK SCT FEW070 SCT200 VIS MIN 9999 WIND THR11 ///// KT WIND THR29 27004KT BLU

TAF TAF LIPC
Valide du 20 à 06h jusqu'au 20 à 15h UTC


200500Z 2006/2015 05008KT 9999 FEW015 SCT060
TEMPO 2006/2012 05010G20KT



MET'MAP, la Météo Aéronautique d'un coup d'oeil ! - Copyright ORBIFLY Décembre 2007 - Disclaimer

ORBIFLY MET'MAP TEAM :

Programmation & Développement : Alexandra Zaïnal
Sur une idée originale de : Baudouin d'Aumeries
Assistance à la programmation : Marc-Olivier Méhu
Soutien technique & logistique : Manuel Goepfert

Contact : metmap@orbifly.com




SOURCES & CREDITS :

   NOAA